sensor_id;sensor_type;location;lat;lon;timestamp;temperature;humidity
27870;DHT22;15225;50.730;4.244;2022-11-22T15:22:14;8.60;23.50
27870;DHT22;15225;50.730;4.244;2022-11-22T15:24:55;8.60;26.10
27870;DHT22;15225;50.730;4.244;2022-11-22T15:27:38;8.80;20.50
27870;DHT22;15225;50.730;4.244;2022-11-22T15:30:18;9.20;3.50
27870;DHT22;15225;50.730;4.244;2022-11-22T15:32:46;9.50;1.00
27870;DHT22;15225;50.730;4.244;2022-11-22T15:35:23;9.70;1.00
27870;DHT22;15225;50.730;4.244;2022-11-22T15:38:04;9.80;1.00
27870;DHT22;15225;50.730;4.244;2022-11-22T15:40:33;10.00;1.00
27870;DHT22;15225;50.730;4.244;2022-11-22T15:43:04;10.20;1.00
27870;DHT22;15225;50.730;4.244;2022-11-22T15:45:41;10.30;1.00
27870;DHT22;15225;50.730;4.244;2022-11-22T15:48:16;10.50;1.00
27870;DHT22;15225;50.730;4.244;2022-11-22T15:53:33;10.60;1.00
27870;DHT22;15225;50.730;4.244;2022-11-22T15:58:45;10.80;99.90
27870;DHT22;15225;50.730;4.244;2022-11-22T16:01:16;10.80;99.90
27870;DHT22;15225;50.730;4.244;2022-11-22T16:03:47;10.70;99.90
27870;DHT22;15225;50.730;4.244;2022-11-22T16:06:13;10.80;99.90
27870;DHT22;15225;50.730;4.244;2022-11-22T16:11:19;11.00;99.90
27870;DHT22;15225;50.730;4.244;2022-11-22T16:13:46;11.00;99.90
27870;DHT22;15225;50.730;4.244;2022-11-22T16:18:41;10.90;99.90
27870;DHT22;15225;50.730;4.244;2022-11-22T16:23:41;10.80;99.90
27870;DHT22;15225;50.730;4.244;2022-11-22T16:28:42;10.90;1.00
27870;DHT22;15225;50.730;4.244;2022-11-22T16:31:29;11.10;99.90
27870;DHT22;15225;50.730;4.244;2022-11-22T16:33:56;11.20;99.90
27870;DHT22;15225;50.730;4.244;2022-11-22T16:36:27;11.20;99.90
27870;DHT22;15225;50.730;4.244;2022-11-22T16:38:53;10.90;1.00
27870;DHT22;15225;50.730;4.244;2022-11-22T16:41:27;10.80;1.00
27870;DHT22;15225;50.730;4.244;2022-11-22T16:44:01;11.00;99.90
27870;DHT22;15225;50.730;4.244;2022-11-22T16:46:28;11.20;99.90
27870;DHT22;15225;50.730;4.244;2022-11-22T16:48:55;11.20;99.90
27870;DHT22;15225;50.730;4.244;2022-11-22T16:51:25;11.20;99.90
27870;DHT22;15225;50.730;4.244;2022-11-22T16:53:58;11.30;99.90
27870;DHT22;15225;50.730;4.244;2022-11-22T16:56:29;11.30;99.90
27870;DHT22;15225;50.730;4.244;2022-11-22T16:58:56;11.40;99.90
27870;DHT22;15225;50.730;4.244;2022-11-22T17:01:24;11.30;99.90
27870;DHT22;15225;50.730;4.244;2022-11-22T17:03:55;11.30;99.90
27870;DHT22;15225;50.730;4.244;2022-11-22T17:06:23;11.30;99.90
27870;DHT22;15225;50.730;4.244;2022-11-22T17:08:51;11.30;99.90
27870;DHT22;15225;50.730;4.244;2022-11-22T17:11:24;11.40;59.00
27870;DHT22;15225;50.730;4.244;2022-11-22T17:13:50;11.30;99.90
27870;DHT22;15225;50.730;4.244;2022-11-22T17:16:16;11.20;99.90
27870;DHT22;15225;50.730;4.244;2022-11-22T17:18:43;11.30;99.90
27870;DHT22;15225;50.730;4.244;2022-11-22T17:21:29;11.30;18.30
27870;DHT22;15225;50.730;4.244;2022-11-22T17:24:00;11.20;29.60
27870;DHT22;15225;50.730;4.244;2022-11-22T17:26:27;11.10;99.90
27870;DHT22;15225;50.730;4.244;2022-11-22T17:28:53;11.00;99.90
27870;DHT22;15225;50.730;4.244;2022-11-22T17:31:20;11.10;99.90
27870;DHT22;15225;50.730;4.244;2022-11-22T17:33:53;11.20;99.90
27870;DHT22;15225;50.730;4.244;2022-11-22T17:36:34;11.20;99.90
27870;DHT22;15225;50.730;4.244;2022-11-22T17:39:03;11.10;99.90
27870;DHT22;15225;50.730;4.244;2022-11-22T17:41:30;11.20;99.90
27870;DHT22;15225;50.730;4.244;2022-11-22T17:43:56;11.10;99.90
27870;DHT22;15225;50.730;4.244;2022-11-22T17:46:22;11.10;99.90
27870;DHT22;15225;50.730;4.244;2022-11-22T17:48:52;11.10;99.90
27870;DHT22;15225;50.730;4.244;2022-11-22T17:51:19;11.10;99.90
27870;DHT22;15225;50.730;4.244;2022-11-22T17:53:45;10.90;99.90
27870;DHT22;15225;50.730;4.244;2022-11-22T17:56:11;10.80;99.90
27870;DHT22;15225;50.730;4.244;2022-11-22T17:58:38;10.80;1.00
27870;DHT22;15225;50.730;4.244;2022-11-22T18:01:06;10.70;1.00
27870;DHT22;15225;50.730;4.244;2022-11-22T18:03:32;10.60;1.00
27870;DHT22;15225;50.730;4.244;2022-11-22T18:05:59;10.70;1.00
27870;DHT22;15225;50.730;4.244;2022-11-22T18:08:25;10.60;1.00
27870;DHT22;15225;50.730;4.244;2022-11-22T18:10:55;10.60;1.00
27870;DHT22;15225;50.730;4.244;2022-11-22T18:13:21;10.60;1.00
27870;DHT22;15225;50.730;4.244;2022-11-22T18:15:51;10.60;1.00
27870;DHT22;15225;50.730;4.244;2022-11-22T18:18:17;10.80;1.00
27870;DHT22;15225;50.730;4.244;2022-11-22T18:20:47;10.80;1.00
27870;DHT22;15225;50.730;4.244;2022-11-22T18:23:14;10.70;1.00
27870;DHT22;15225;50.730;4.244;2022-11-22T18:25:40;10.90;1.00
27870;DHT22;15225;50.730;4.244;2022-11-22T18:28:06;10.90;1.00
27870;DHT22;15225;50.730;4.244;2022-11-22T18:30:31;10.80;1.00
27870;DHT22;15225;50.730;4.244;2022-11-22T18:32:58;10.80;1.00
27870;DHT22;15225;50.730;4.244;2022-11-22T18:35:27;10.80;1.00
27870;DHT22;15225;50.730;4.244;2022-11-22T18:37:53;10.70;1.00
27870;DHT22;15225;50.730;4.244;2022-11-22T18:40:19;10.70;1.00
27870;DHT22;15225;50.730;4.244;2022-11-22T18:42:45;10.60;1.00
27870;DHT22;15225;50.730;4.244;2022-11-22T18:45:15;10.60;1.00
27870;DHT22;15225;50.730;4.244;2022-11-22T18:47:41;10.70;1.00
27870;DHT22;15225;50.730;4.244;2022-11-22T18:50:07;10.70;1.00
27870;DHT22;15225;50.730;4.244;2022-11-22T18:52:33;10.80;1.00
27870;DHT22;15225;50.730;4.244;2022-11-22T18:54:59;10.70;1.00
27870;DHT22;15225;50.730;4.244;2022-11-22T18:57:26;10.60;1.00
27870;DHT22;15225;50.730;4.244;2022-11-22T18:59:52;10.50;1.00
27870;DHT22;15225;50.730;4.244;2022-11-22T19:02:17;10.50;1.00
27870;DHT22;15225;50.730;4.244;2022-11-22T19:04:50;10.60;1.00
27870;DHT22;15225;50.730;4.244;2022-11-22T19:07:16;10.50;1.00
27870;DHT22;15225;50.730;4.244;2022-11-22T19:09:42;10.40;1.00
27870;DHT22;15225;50.730;4.244;2022-11-22T19:12:08;10.30;1.00
27870;DHT22;15225;50.730;4.244;2022-11-22T19:14:34;10.30;1.00
27870;DHT22;15225;50.730;4.244;2022-11-22T19:17:00;10.20;1.00
27870;DHT22;15225;50.730;4.244;2022-11-22T19:19:26;10.20;1.00
27870;DHT22;15225;50.730;4.244;2022-11-22T19:21:56;10.20;1.00
27870;DHT22;15225;50.730;4.244;2022-11-22T19:24:22;10.20;1.00
27870;DHT22;15225;50.730;4.244;2022-11-22T19:26:48;10.30;1.00
27870;DHT22;15225;50.730;4.244;2022-11-22T19:29:15;10.50;1.00
27870;DHT22;15225;50.730;4.244;2022-11-22T19:31:42;10.60;1.00
27870;DHT22;15225;50.730;4.244;2022-11-22T19:34:07;10.60;1.00
27870;DHT22;15225;50.730;4.244;2022-11-22T19:36:34;10.70;1.00
27870;DHT22;15225;50.730;4.244;2022-11-22T19:39:09;10.80;1.00
27870;DHT22;15225;50.730;4.244;2022-11-22T19:41:36;10.80;1.00
27870;DHT22;15225;50.730;4.244;2022-11-22T19:44:02;10.80;1.00
27870;DHT22;15225;50.730;4.244;2022-11-22T19:46:29;10.70;1.00
27870;DHT22;15225;50.730;4.244;2022-11-22T19:48:58;10.50;1.00
27870;DHT22;15225;50.730;4.244;2022-11-22T19:51:26;10.60;1.00
27870;DHT22;15225;50.730;4.244;2022-11-22T19:53:54;10.50;1.00
